Offutt Air Force Base Omaha US
ICAO: KOFF
IATA: OFF
Category: Medium
Scheduled Services: No

Elevation: 1052 ft
TransAlt. 18000 ft.

Airport Communications:
OMAHA APP/DEP:118
ATIS:126.025
GND:121.7
PMSV METRO:22.74
COMD POST:31.1
PTD:37.94
TWR:123.7

KOFF Zoom In..

If Map Doesn't Load, Click Here

Runways:

(A) RW 12 length 11702 ft width 150 ft
ILS 111.70 / hdg 124

(B) RW 30 length 11702 ft width 150 ft
ILS 109.50 / hdg 304

Location; KOFF
Day. 23 / Time. 08.56 Zulu
* Altimeter: 30.06
* Temperature: 09° c. 48.2°f.
* Wind from: 120° Speed 03 kn.
Dewpoint: 09° c.
Visibility: 10 Statute Miles.
Clouds: Clear (automated report).

KOFF 230856Z AUTO 12003KT 10SM CLR 09/09 A3006 RMK AO2 SLP182 T00920087 58002 $


Wind From 120°
Speed 03 kn.

 
 
jpsmedia.com for Web Design worldairports.se 2018   terms of use